Time;durP1;ratioP1;P1;durP2;ratioP2;P2;SDS_P1;SDS_P2;PMS_P1;PMS_P2;Temp;Humidity;BMP_temperature;BMP_pressure;BME280_temperature;BME280_humidity;BME280_pressure;Samples;Min_cycle;Max_cycle;Signal;HPM_P1;HPM_P2
2022/08/16 00:00:34;;;;;;;;;;;;;;;25.46;43.90;98884.78;5034008;28;19916;-74
2022/08/16 00:03:00;;;;;;;;;;;;;;;25.50;43.62;98891.22;5033823;28;19909;-74
2022/08/16 00:05:26;;;;;;;;;;;;;;;25.52;43.82;98891.72;5033701;28;19920;-74
2022/08/16 00:07:52;;;;;;;;;;;;;;;25.51;43.74;98890.91;5032256;28;19915;-74
2022/08/16 00:10:18;;;;;;;;;;;;;;;25.53;43.79;98894.13;5033819;28;19913;-74
2022/08/16 00:12:43;;;;;;;;;;;;;;;25.52;43.59;98891.72;5033756;28;20279;-74
2022/08/16 00:15:10;;;;;;;;;;;;;;;25.50;44.26;98886.59;5033563;28;19995;-74
2022/08/16 00:17:36;;;;;;;;;;;;;;;25.51;43.94;98890.13;5033573;28;20378;-75
2022/08/16 00:20:01;;;;;;;;;;;;;;;25.50;43.72;98902.03;5033435;28;19913;-74
2022/08/16 00:22:26;;;;;;;;;;;;;;;25.48;43.56;98898.81;5033582;28;19909;-74
2022/08/16 00:24:52;;;;;;;;;;;;;;;25.46;44.08;98903.69;5032236;28;19913;-74
2022/08/16 00:27:18;;;;;;;;;;;;;;;25.40;44.46;98899.47;5033341;28;19908;-74
2022/08/16 00:29:43;;;;;;;;;;;;;;;25.38;44.00;98898.94;5033371;28;19974;-74
2022/08/16 00:32:08;;;;;;;;;;;;;;;25.33;44.04;98894.41;5033338;28;19909;-74
2022/08/16 00:34:35;;;;;;;;;;;;;;;25.37;44.14;98894.63;5033295;28;20051;-74
2022/08/16 00:37:00;;;;;;;;;;;;;;;25.39;44.29;98900.56;5033324;28;20479;-74
2022/08/16 00:39:26;;;;;;;;;;;;;;;25.37;44.45;98900.84;5033074;28;19952;-75
2022/08/16 00:41:51;;;;;;;;;;;;;;;25.32;44.48;98906.31;5031689;28;19916;-74
2022/08/16 00:44:19;;;;;;;;;;;;;;;25.29;44.58;98905.00;5033203;28;20066;-74
2022/08/16 00:46:53;;;;;;;;;;;;;;;25.29;44.06;98918.50;5033049;28;19905;-74
2022/08/16 00:49:19;;;;;;;;;;;;;;;25.25;45.29;98930.97;5031750;28;19909;-75
2022/08/16 00:51:44;;;;;;;;;;;;;;;25.16;44.90;98930.00;5032886;28;20633;-74
2022/08/16 00:54:10;;;;;;;;;;;;;;;25.11;45.45;98930.06;5032894;28;19979;-74
2022/08/16 00:56:36;;;;;;;;;;;;;;;25.11;44.96;98923.84;5031573;28;20393;-74
2022/08/16 00:59:03;;;;;;;;;;;;;;;25.12;45.11;98930.84;5032729;28;19979;-75
2022/08/16 01:01:31;;;;;;;;;;;;;;;25.14;44.07;98934.88;5032704;28;20290;-75
2022/08/16 01:03:57;;;;;;;;;;;;;;;25.12;44.91;98937.06;5032684;28;19967;-75
2022/08/16 01:06:22;;;;;;;;;;;;;;;25.14;44.57;98944.88;5032754;28;20337;-74
2022/08/16 01:08:49;;;;;;;;;;;;;;;25.15;44.11;98944.59;5032626;28;19912;-74
2022/08/16 01:11:15;;;;;;;;;;;;;;;25.16;44.65;98938.09;5032586;28;19916;-74
2022/08/16 01:13:40;;;;;;;;;;;;;;;25.16;43.98;98948.91;5032678;28;20309;-75
2022/08/16 01:16:11;;;;;;;;;;;;;;;25.17;44.42;98949.69;5032535;28;19909;-75
2022/08/16 01:18:45;;;;;;;;;;;;;;;25.15;44.76;98958.09;5031132;28;19912;-74
2022/08/16 01:21:19;;;;;;;;;;;;;;;25.10;44.35;98954.66;5032420;28;19999;-74
2022/08/16 01:23:44;;;;;;;;;;;;;;;25.11;44.55;98957.06;5032339;28;20405;-75
2022/08/16 01:26:10;;;;;;;;;;;;;;;25.10;44.74;98958.16;5032427;28;19917;-74
2022/08/16 01:28:36;;;;;;;;;;;;;;;25.05;44.92;98952.81;5032360;28;19916;-74
2022/08/16 01:31:04;;;;;;;;;;;;;;;24.98;45.46;98949.66;5032067;28;19909;-74
2022/08/16 01:33:29;;;;;;;;;;;;;;;24.98;45.43;98938.84;5031056;28;19909;-74
2022/08/16 01:35:57;;;;;;;;;;;;;;;24.94;45.71;98943.19;5032041;28;19909;-74
2022/08/16 01:38:31;;;;;;;;;;;;;;;24.93;45.04;98939.66;5032286;28;20382;-74
2022/08/16 01:40:58;;;;;;;;;;;;;;;24.93;44.56;98946.97;5032085;28;19916;-74
2022/08/16 01:43:23;;;;;;;;;;;;;;;24.86;45.55;98949.22;5032334;28;20382;-74
2022/08/16 01:45:52;;;;;;;;;;;;;;;24.84;45.38;98946.78;5030803;28;20004;-75
2022/08/16 01:48:17;;;;;;;;;;;;;;;24.80;45.62;98944.94;5030828;28;19905;-74
2022/08/16 01:50:43;;;;;;;;;;;;;;;24.76;45.46;98941.22;5031980;28;20091;-74
2022/08/16 01:53:09;;;;;;;;;;;;;;;24.69;46.85;98938.84;5031983;28;19983;-74
2022/08/16 01:55:34;;;;;;;;;;;;;;;24.66;46.06;98942.91;5030733;28;19979;-75
2022/08/16 01:58:00;;;;;;;;;;;;;;;24.66;46.19;98937.53;5032011;28;20336;-74
2022/08/16 02:00:25;;;;;;;;;;;;;;;24.68;45.75;98931.84;5030334;28;20390;-75
2022/08/16 02:02:51;;;;;;;;;;;;;;;24.62;45.01;98951.88;5031476;28;19935;-75
2022/08/16 02:05:16;;;;;;;;;;;;;;;24.55;45.68;98949.50;5031819;28;20008;-74
2022/08/16 02:07:42;;;;;;;;;;;;;;;24.49;46.37;98961.41;5031815;28;19909;-74
2022/08/16 02:10:08;;;;;;;;;;;;;;;24.48;46.16;98954.41;5031700;28;19963;-75
2022/08/16 02:12:33;;;;;;;;;;;;;;;24.43;46.85;98950.94;5031742;28;20409;-75
2022/08/16 02:14:59;;;;;;;;;;;;;;;24.35;45.73;98955.03;5031449;28;19909;-74
2022/08/16 02:17:24;;;;;;;;;;;;;;;24.33;45.58;98951.81;5031392;28;19936;-74
2022/08/16 02:19:50;;;;;;;;;;;;;;;24.34;46.18;98953.44;5031542;28;19919;-74
2022/08/16 02:22:17;;;;;;;;;;;;;;;24.34;46.06;98950.75;5031528;28;19963;-74
2022/08/16 02:24:43;;;;;;;;;;;;;;;24.32;45.79;98958.31;5031590;28;19913;-75
2022/08/16 02:27:09;;;;;;;;;;;;;;;24.29;46.20;98956.97;5031620;28;19916;-74
2022/08/16 02:29:34;;;;;;;;;;;;;;;24.25;46.17;98966.69;5031632;28;19913;-74
2022/08/16 02:31:59;;;;;;;;;;;;;;;24.22;45.95;98963.75;5031590;28;19913;-74
2022/08/16 02:34:24;;;;;;;;;;;;;;;24.15;46.84;98961.38;5031728;28;19995;-75
2022/08/16 02:36:50;;;;;;;;;;;;;;;24.10;46.30;98964.09;5031808;28;20013;-74
2022/08/16 02:39:15;;;;;;;;;;;;;;;24.05;46.86;98967.66;5031427;28;19909;-74
2022/08/16 02:41:42;;;;;;;;;;;;;;;24.00;46.24;98975.78;5030077;28;19913;-75
2022/08/16 02:44:10;;;;;;;;;;;;;;;23.95;47.04;98965.03;5034762;28;19979;-75
2022/08/16 02:46:35;;;;;;;;;;;;;;;23.93;47.10;98961.78;5035350;28;19916;-74
2022/08/16 02:49:01;;;;;;;;;;;;;;;23.91;46.56;98952.38;5034107;28;19909;-74
2022/08/16 02:51:26;;;;;;;;;;;;;;;23.92;46.55;98954.78;5035058;28;19909;-75
2022/08/16 02:53:53;;;;;;;;;;;;;;;23.91;46.83;98963.16;5035036;28;19913;-74
2022/08/16 02:56:19;;;;;;;;;;;;;;;23.86;46.65;98964.00;5035074;28;19975;-75
2022/08/16 02:58:46;;;;;;;;;;;;;;;23.80;47.41;98961.59;5035010;28;20372;-75
2022/08/16 03:01:12;;;;;;;;;;;;;;;23.75;46.90;98955.13;5033622;28;19909;-74
2022/08/16 03:03:37;;;;;;;;;;;;;;;23.69;47.37;98956.25;5033478;28;20310;-74
2022/08/16 03:06:02;;;;;;;;;;;;;;;23.66;47.38;98951.41;5034722;28;19935;-74
2022/08/16 03:08:28;;;;;;;;;;;;;;;23.64;47.07;98960.84;5034697;28;19932;-74
2022/08/16 03:10:53;;;;;;;;;;;;;;;23.59;47.91;98968.97;5034958;28;20381;-75
2022/08/16 03:13:19;;;;;;;;;;;;;;;23.57;46.89;98971.94;5034923;28;20374;-74
2022/08/16 03:15:44;;;;;;;;;;;;;;;23.49;48.51;98979.75;5034785;28;19909;-74
2022/08/16 03:18:10;;;;;;;;;;;;;;;23.33;48.76;98971.75;5034614;28;19940;-74
2022/08/16 03:20:35;;;;;;;;;;;;;;;23.32;47.06;98975.50;5034597;28;19970;-75
2022/08/16 03:23:01;;;;;;;;;;;;;;;23.34;47.71;98984.13;5034564;28;19916;-74
2022/08/16 03:25:27;;;;;;;;;;;;;;;23.39;47.67;98991.38;5034562;28;20362;-74
2022/08/16 03:27:52;;;;;;;;;;;;;;;23.41;48.24;98998.13;5034644;28;19916;-74
2022/08/16 03:30:23;;;;;;;;;;;;;;;23.41;47.50;98995.41;5034442;28;19909;-75
2022/08/16 03:32:48;;;;;;;;;;;;;;;23.38;47.80;98993.28;5034373;28;19916;-74
2022/08/16 03:35:15;;;;;;;;;;;;;;;23.35;48.14;99001.09;5034427;28;19912;-75
2022/08/16 03:37:42;;;;;;;;;;;;;;;23.32;47.75;98999.75;5034435;28;19913;-74
2022/08/16 03:40:08;;;;;;;;;;;;;;;23.32;47.42;98999.75;5034429;28;20047;-74
2022/08/16 03:42:34;;;;;;;;;;;;;;;23.30;48.36;99004.63;5034343;28;20780;-74
2022/08/16 03:44:59;;;;;;;;;;;;;;;23.32;48.51;99001.66;5034222;28;20408;-74
2022/08/16 03:47:26;;;;;;;;;;;;;;;23.30;47.87;99003.81;5034228;28;19909;-74
2022/08/16 03:49:52;;;;;;;;;;;;;;;23.23;48.34;99004.09;5032787;28;19909;-74
2022/08/16 03:52:20;;;;;;;;;;;;;;;23.21;48.41;99006.25;5033946;28;19916;-74
2022/08/16 03:54:47;;;;;;;;;;;;;;;23.17;48.50;99015.97;5033346;28;19916;-75
2022/08/16 03:57:12;;;;;;;;;;;;;;;23.14;48.50;99000.34;5033913;28;19901;-74
2022/08/16 03:59:37;;;;;;;;;;;;;;;23.11;49.11;99007.09;5033817;28;19909;-75
2022/08/16 04:02:03;;;;;;;;;;;;;;;23.18;48.01;99006.00;5033799;28;19916;-74
2022/08/16 04:04:28;;;;;;;;;;;;;;;23.27;48.26;99001.66;5033896;28;19919;-75
2022/08/16 04:06:54;;;;;;;;;;;;;;;23.30;47.63;99010.00;5033862;28;19913;-74
2022/08/16 04:09:19;;;;;;;;;;;;;;;23.31;48.49;99017.00;5033653;28;19913;-75
2022/08/16 04:11:45;;;;;;;;;;;;;;;23.37;47.91;99015.91;5032457;28;20369;-74
2022/08/16 04:14:10;;;;;;;;;;;;;;;23.42;47.88;99017.78;5033732;28;19909;-74
2022/08/16 04:16:36;;;;;;;;;;;;;;;23.41;48.35;99008.09;5033659;28;19999;-74
2022/08/16 04:19:03;;;;;;;;;;;;;;;23.43;48.09;99014.00;5033732;28;19920;-74
2022/08/16 04:21:29;;;;;;;;;;;;;;;23.44;48.68;99021.00;5033635;28;19931;-74
2022/08/16 04:23:55;;;;;;;;;;;;;;;23.46;47.27;99008.06;5033610;28;19967;-74
2022/08/16 04:26:20;;;;;;;;;;;;;;;23.47;48.21;99023.16;5033403;28;19913;-74
2022/08/16 04:28:45;;;;;;;;;;;;;;;23.49;48.25;99006.72;5033402;28;19909;-74
2022/08/16 04:31:11;;;;;;;;;;;;;;;23.47;48.50;99004.28;5033297;28;19912;-74
2022/08/16 04:33:36;;;;;;;;;;;;;;;23.51;48.68;99020.72;5033455;28;19909;-74
2022/08/16 04:36:01;;;;;;;;;;;;;;;23.51;49.07;99021.53;5033269;28;19917;-74
2022/08/16 04:38:27;;;;;;;;;;;;;;;23.55;48.18;99008.34;5033156;28;20308;-74
2022/08/16 04:40:52;;;;;;;;;;;;;;;23.57;48.72;99009.66;5033157;28;20086;-74
2022/08/16 04:43:17;;;;;;;;;;;;;;;23.63;48.09;99005.06;5032805;28;19909;-74
2022/08/16 04:45:43;;;;;;;;;;;;;;;23.66;48.38;99004.50;5031836;28;19913;-74
2022/08/16 04:48:09;;;;;;;;;;;;;;;23.70;48.55;99005.56;5033072;28;20393;-74
2022/08/16 04:50:35;;;;;;;;;;;;;;;23.73;49.37;98995.03;5032908;28;19948;-74
2022/08/16 04:53:00;;;;;;;;;;;;;;;23.75;48.72;99000.97;5032877;28;20448;-74
2022/08/16 04:55:27;;;;;;;;;;;;;;;23.78;48.57;98996.91;5032812;28;20419;-75
2022/08/16 04:57:53;;;;;;;;;;;;;;;23.84;48.34;98995.00;5032878;28;20381;-74
2022/08/16 05:00:24;;;;;;;;;;;;;;;23.88;48.43;98991.47;5032831;28;19973;-75
2022/08/16 05:02:51;;;;;;;;;;;;;;;23.94;48.16;98990.38;5032759;28;19916;-75
2022/08/16 05:05:16;;;;;;;;;;;;;;;24.01;47.74;98990.06;5030782;28;19919;-74
2022/08/16 05:07:41;;;;;;;;;;;;;;;24.02;47.75;98984.38;5032401;28;20312;-74
2022/08/16 05:10:08;;;;;;;;;;;;;;;24.05;48.47;99005.41;5032325;28;19909;-75
2022/08/16 05:12:33;;;;;;;;;;;;;;;24.08;47.92;98998.66;5032446;28;19989;-74
2022/08/16 05:14:58;;;;;;;;;;;;;;;24.14;48.14;98996.72;5031268;28;19936;-74
2022/08/16 05:17:24;;;;;;;;;;;;;;;24.20;47.95;98995.59;5032407;28;19960;-74
2022/08/16 05:19:49;;;;;;;;;;;;;;;24.20;48.01;98993.72;5032357;28;20417;-75
2022/08/16 05:22:15;;;;;;;;;;;;;;;24.26;48.19;98995.28;5032202;28;19913;-75
2022/08/16 05:24:40;;;;;;;;;;;;;;;24.31;48.15;98989.06;5031167;28;19913;-75
2022/08/16 05:27:06;;;;;;;;;;;;;;;24.33;47.85;98989.59;5032350;28;19909;-75
2022/08/16 05:29:31;;;;;;;;;;;;;;;24.38;48.23;98986.88;5031027;28;20405;-74
2022/08/16 05:31:56;;;;;;;;;;;;;;;24.47;47.49;98990.56;5029900;28;19913;-75
2022/08/16 05:34:21;;;;;;;;;;;;;;;24.50;47.74;98998.09;5033095;28;20231;-75
2022/08/16 05:36:51;;;;;;;;;;;;;;;24.53;47.11;99000.25;5044680;28;19973;-75
2022/08/16 05:39:17;;;;;;;;;;;;;;;24.54;48.21;98999.19;5032563;28;19909;-75
2022/08/16 05:41:42;;;;;;;;;;;;;;;24.62;47.79;99003.97;5031683;28;19909;-75
2022/08/16 05:44:08;;;;;;;;;;;;;;;24.71;47.95;98996.06;5031872;28;19917;-74
2022/08/16 05:46:33;;;;;;;;;;;;;;;24.79;48.14;99011.66;5031948;28;20429;-75
2022/08/16 05:48:58;;;;;;;;;;;;;;;24.87;47.57;99013.72;5030219;28;19920;-75
2022/08/16 05:51:24;;;;;;;;;;;;;;;24.95;47.45;99012.31;5031412;28;19967;-75
2022/08/16 05:53:49;;;;;;;;;;;;;;;25.03;47.38;99019.81;5031813;28;19909;-75
2022/08/16 05:56:15;;;;;;;;;;;;;;;25.07;46.64;99017.34;5031230;28;20409;-75
2022/08/16 05:58:40;;;;;;;;;;;;;;;25.15;46.75;99014.03;5030232;28;19922;-74
2022/08/16 06:01:05;;;;;;;;;;;;;;;25.22;46.25;99009.88;5031885;28;20372;-75
2022/08/16 06:03:31;;;;;;;;;;;;;;;25.29;45.93;99007.69;5031614;28;20000;-75
2022/08/16 06:05:57;;;;;;;;;;;;;;;25.36;46.24;99001.94;5015349;28;19924;-75
2022/08/16 06:08:23;;;;;;;;;;;;;;;25.45;45.93;98996.69;5027159;28;19917;-75
2022/08/16 06:10:48;;;;;;;;;;;;;;;25.53;45.68;98998.75;5030340;28;20335;-75
2022/08/16 06:13:14;;;;;;;;;;;;;;;25.60;45.82;99001.91;5031386;28;20370;-75
2022/08/16 06:15:39;;;;;;;;;;;;;;;25.67;45.53;98996.97;5030197;28;20375;-74
2022/08/16 06:18:04;;;;;;;;;;;;;;;25.76;45.89;98997.16;5042246;28;19912;-74
2022/08/16 06:20:30;;;;;;;;;;;;;;;25.83;45.35;99001.09;5039966;28;19959;-75
2022/08/16 06:22:55;;;;;;;;;;;;;;;25.90;45.43;98998.84;5041570;28;19913;-75
2022/08/16 06:25:22;;;;;;;;;;;;;;;25.97;45.24;99009.28;5047751;28;19917;-75
2022/08/16 06:27:47;;;;;;;;;;;;;;;26.03;44.97;99005.44;5040240;28;19967;-75
2022/08/16 06:30:12;;;;;;;;;;;;;;;26.13;45.27;99007.19;5049055;28;19920;-75
2022/08/16 06:32:38;;;;;;;;;;;;;;;26.18;45.16;99004.41;5043361;28;20396;-74
2022/08/16 06:35:04;;;;;;;;;;;;;;;26.26;44.68;99009.97;5036342;28;19917;-75
2022/08/16 06:37:29;;;;;;;;;;;;;;;26.34;44.64;98995.00;5050988;28;20062;-74
2022/08/16 06:39:54;;;;;;;;;;;;;;;26.40;44.24;98993.81;5044320;28;19920;-75
2022/08/16 06:42:19;;;;;;;;;;;;;;;26.46;44.20;98994.53;5054903;28;19916;-74
2022/08/16 06:44:45;;;;;;;;;;;;;;;26.50;44.11;98993.66;5035250;28;20006;-75
2022/08/16 06:47:11;;;;;;;;;;;;;;;26.55;44.09;98992.75;5046024;28;19912;-75
2022/08/16 06:49:37;;;;;;;;;;;;;;;26.63;44.03;98996.69;5054956;28;19912;-75
2022/08/16 06:52:02;;;;;;;;;;;;;;;26.70;43.76;98989.00;5042875;28;20374;-75
2022/08/16 06:54:27;;;;;;;;;;;;;;;26.79;43.65;98990.75;5038817;28;19909;-75
2022/08/16 06:56:53;;;;;;;;;;;;;;;26.88;43.84;98986.25;5041978;28;19912;-75
2022/08/16 06:59:18;;;;;;;;;;;;;;;26.96;43.86;98979.34;5041228;28;19913;-75
2022/08/16 07:01:43;;;;;;;;;;;;;;;27.05;43.51;98988.41;5045777;28;19970;-75
2022/08/16 07:04:09;;;;;;;;;;;;;;;27.16;43.12;98984.41;5038168;28;19920;-74
2022/08/16 07:06:34;;;;;;;;;;;;;;;27.27;43.21;98985.00;5052158;28;20381;-74
2022/08/16 07:08:59;;;;;;;;;;;;;;;27.33;43.22;98986.50;5049448;28;19919;-75
2022/08/16 07:11:25;;;;;;;;;;;;;;;27.38;42.71;98988.31;5039993;28;20405;-74
2022/08/16 07:13:51;;;;;;;;;;;;;;;27.43;42.87;98982.78;5054472;28;19909;-75
2022/08/16 07:16:16;;;;;;;;;;;;;;;27.50;42.55;98977.81;5030012;28;19919;-75
2022/08/16 07:18:43;;;;;;;;;;;;;;;27.59;42.63;98978.69;5034287;28;19913;-74
2022/08/16 07:21:09;;;;;;;;;;;;;;;27.62;42.47;98980.03;5039862;28;19917;-75
2022/08/16 07:23:35;;;;;;;;;;;;;;;27.70;42.71;98982.00;5037426;28;19924;-74
2022/08/16 07:26:00;;;;;;;;;;;;;;;27.81;42.36;98981.50;5052673;28;19970;-75
2022/08/16 07:28:25;;;;;;;;;;;;;;;27.88;41.90;98982.97;5036462;28;20312;-74
2022/08/16 07:30:51;;;;;;;;;;;;;;;27.94;41.27;98976.34;5049451;28;20524;-75
2022/08/16 07:33:16;;;;;;;;;;;;;;;28.03;41.27;98983.44;5033979;28;19909;-74
2022/08/16 07:35:42;;;;;;;;;;;;;;;28.09;40.27;98975.97;5033660;28;19912;-75
2022/08/16 07:38:07;;;;;;;;;;;;;;;28.19;40.26;98983.88;5039830;28;19936;-75
2022/08/16 07:40:33;;;;;;;;;;;;;;;28.27;39.92;98971.56;5039784;28;19978;-75
2022/08/16 07:42:58;;;;;;;;;;;;;;;28.35;39.96;98974.31;5038560;28;19939;-75
2022/08/16 07:45:23;;;;;;;;;;;;;;;28.43;39.85;98975.50;5049704;28;20038;-75
2022/08/16 07:47:49;;;;;;;;;;;;;;;28.52;40.02;98981.00;5035768;28;19925;-75
2022/08/16 07:50:15;;;;;;;;;;;;;;;28.61;39.39;98981.84;5043081;28;19917;-75
2022/08/16 07:52:41;;;;;;;;;;;;;;;28.68;39.03;98979.50;5038308;28;19990;-75
2022/08/16 07:55:07;;;;;;;;;;;;;;;28.74;38.98;98979.03;5042011;28;20377;-75
2022/08/16 07:57:33;;;;;;;;;;;;;;;28.77;39.21;98975.72;5044418;28;20348;-75
2022/08/16 07:59:59;;;;;;;;;;;;;;;28.87;39.15;98966.50;5037625;28;19943;-75
2022/08/16 08:02:25;;;;;;;;;;;;;;;28.94;37.84;98971.50;5037035;28;19917;-75
2022/08/16 08:04:50;;;;;;;;;;;;;;;29.03;38.42;98978.59;5038013;28;19990;-75
2022/08/16 08:07:15;;;;;;;;;;;;;;;29.14;38.24;98967.44;5057157;28;20372;-75
2022/08/16 08:09:41;;;;;;;;;;;;;;;29.21;37.19;98959.66;5030993;28;19909;-75
2022/08/16 08:12:07;;;;;;;;;;;;;;;29.30;36.93;98958.56;5040288;28;19912;-75
2022/08/16 08:14:32;;;;;;;;;;;;;;;29.44;37.54;98969.34;5038302;28;19916;-76
2022/08/16 08:17:00;;;;;;;;;;;;;;;29.56;36.41;98968.72;5033278;28;20312;-75
2022/08/16 08:19:26;;;;;;;;;;;;;;;29.64;36.18;98970.66;5053024;28;19917;-75
2022/08/16 08:21:52;;;;;;;;;;;;;;;29.77;36.20;98960.78;5031664;28;19916;-75
2022/08/16 08:24:18;;;;;;;;;;;;;;;29.84;35.25;98963.81;5033276;28;20318;-75
2022/08/16 08:26:44;;;;;;;;;;;;;;;29.96;36.21;98955.84;5048243;28;19917;-75
2022/08/16 08:29:09;;;;;;;;;;;;;;;30.11;36.78;98952.66;5035168;28;20572;-75
2022/08/16 08:31:35;;;;;;;;;;;;;;;30.23;35.66;98963.69;5034482;28;20003;-75
2022/08/16 08:34:01;;;;;;;;;;;;;;;30.34;35.94;98959.53;5051699;28;20393;-75
2022/08/16 08:36:28;;;;;;;;;;;;;;;30.45;35.98;98953.72;5053479;28;20003;-75
2022/08/16 08:38:53;;;;;;;;;;;;;;;30.54;34.61;98946.38;5042327;28;19999;-75
2022/08/16 08:41:19;;;;;;;;;;;;;;;30.59;34.94;98955.19;5032825;28;19959;-76
2022/08/16 08:43:44;;;;;;;;;;;;;;;30.69;33.92;98956.78;5032822;28;19913;-75
2022/08/16 08:46:10;;;;;;;;;;;;;;;30.78;32.95;98957.56;5042543;28;19913;-76
2022/08/16 08:48:36;;;;;;;;;;;;;;;30.85;32.71;98943.41;5051214;28;20007;-75
2022/08/16 08:51:05;;;;;;;;;;;;;;;30.96;33.85;98948.19;5052603;28;19939;-75
2022/08/16 08:53:32;;;;;;;;;;;;;;;31.14;34.27;98948.91;5047704;28;19917;-75
2022/08/16 08:55:57;;;;;;;;;;;;;;;31.27;32.29;98944.41;5032285;28;19992;-75
2022/08/16 08:58:23;;;;;;;;;;;;;;;31.41;32.63;98944.97;5064368;28;20063;-75
2022/08/16 09:00:48;;;;;;;;;;;;;;;31.55;33.11;98948.25;5046094;28;20019;-76
2022/08/16 09:03:13;;;;;;;;;;;;;;;31.69;32.92;98958.91;5032410;28;19928;-76
2022/08/16 09:05:39;;;;;;;;;;;;;;;31.80;30.72;98948.44;5033054;28;19921;-75
2022/08/16 09:08:05;;;;;;;;;;;;;;;31.89;31.79;98944.50;5033636;28;20287;-76
2022/08/16 09:10:30;;;;;;;;;;;;;;;32.07;31.38;98942.44;5042455;28;19913;-76
2022/08/16 09:12:56;;;;;;;;;;;;;;;32.32;32.56;98942.56;5032279;28;19913;-76
2022/08/16 09:15:22;;;;;;;;;;;;;;;32.46;30.70;98935.66;5032223;28;19992;-76
2022/08/16 09:17:47;;;;;;;;;;;;;;;32.60;30.79;98937.28;5032019;28;20372;-75
2022/08/16 09:20:13;;;;;;;;;;;;;;;32.69;30.28;98935.25;5030790;28;19919;-75
2022/08/16 09:22:39;;;;;;;;;;;;;;;32.91;31.28;98936.84;5031865;28;19920;-76
2022/08/16 09:25:05;;;;;;;;;;;;;;;33.11;31.08;98944.94;5037692;28;19913;-75
2022/08/16 09:27:30;;;;;;;;;;;;;;;33.29;29.80;98942.75;5052028;28;19935;-75
2022/08/16 09:29:55;;;;;;;;;;;;;;;33.33;29.34;98932.75;5047134;28;19917;-76
2022/08/16 09:32:20;;;;;;;;;;;;;;;33.47;28.92;98932.44;5024977;28;19925;-76
2022/08/16 09:34:46;;;;;;;;;;;;;;;33.59;29.43;98945.28;5013220;28;19917;-75
2022/08/16 09:37:14;;;;;;;;;;;;;;;33.71;29.17;98937.06;5017192;28;20314;-76
2022/08/16 09:39:40;;;;;;;;;;;;;;;33.83;29.43;98939.78;5031312;28;19916;-76
2022/08/16 09:42:06;;;;;;;;;;;;;;;33.85;30.67;98929.28;5013283;28;20318;-76
2022/08/16 09:44:31;;;;;;;;;;;;;;;34.01;29.15;98934.81;5011892;28;20008;-76
2022/08/16 09:46:57;;;;;;;;;;;;;;;34.18;30.11;98940.00;5011843;28;20302;-76
2022/08/16 09:49:22;;;;;;;;;;;;;;;34.34;27.91;98931.88;5011822;28;19918;-75
2022/08/16 09:51:52;;;;;;;;;;;;;;;34.49;27.13;98927.56;5011602;28;19919;-75
2022/08/16 09:54:17;;;;;;;;;;;;;;;34.38;28.58;98935.50;5020022;28;19948;-75
2022/08/16 09:56:43;;;;;;;;;;;;;;;34.44;26.14;98928.63;5029864;28;20416;-75
2022/08/16 09:59:10;;;;;;;;;;;;;;;34.51;27.68;98917.84;5031102;28;19913;-75
2022/08/16 10:01:37;;;;;;;;;;;;;;;34.81;26.40;98918.22;5031615;28;19909;-75
2022/08/16 10:04:02;;;;;;;;;;;;;;;34.89;27.02;98917.25;5030874;28;19909;-75
2022/08/16 10:06:28;;;;;;;;;;;;;;;35.09;27.19;98917.38;5030957;28;20418;-75
2022/08/16 10:08:53;;;;;;;;;;;;;;;35.31;25.24;98923.00;5027315;28;20248;-76
2022/08/16 10:14:02;;;;;;;;;;;;;;;35.54;24.45;98914.91;5030680;28;20301;-75
2022/08/16 10:16:28;;;;;;;;;;;;;;;35.69;26.03;98918.78;5030970;28;19908;-75
2022/08/16 10:18:54;;;;;;;;;;;;;;;35.84;25.91;98920.69;5035725;28;20400;-75
2022/08/16 10:21:19;;;;;;;;;;;;;;;36.02;25.67;98912.00;5043727;28;20553;-75
2022/08/16 10:23:45;;;;;;;;;;;;;;;36.16;25.52;98915.03;5031054;28;19936;-75
2022/08/16 10:26:11;;;;;;;;;;;;;;;36.33;23.33;98911.84;5030952;28;19936;-76
2022/08/16 10:28:36;;;;;;;;;;;;;;;36.48;25.82;98916.50;5031206;28;19916;-76
2022/08/16 10:31:02;;;;;;;;;;;;;;;36.32;23.71;98914.97;5032433;28;20370;-75
2022/08/16 10:33:28;;;;;;;;;;;;;;;36.36;25.26;98913.09;5031255;28;19913;-75
2022/08/16 10:35:53;;;;;;;;;;;;;;;36.51;23.22;98906.72;5045105;28;19991;-76
2022/08/16 10:38:19;;;;;;;;;;;;;;;36.69;23.32;98898.75;5038413;28;19974;-76
2022/08/16 10:40:45;;;;;;;;;;;;;;;36.78;22.94;98894.63;5049085;28;20404;-77
2022/08/16 10:43:11;;;;;;;;;;;;;;;36.87;23.34;98894.38;5037333;28;19913;-77
2022/08/16 10:45:36;;;;;;;;;;;;;;;36.96;24.25;98892.16;5044910;28;19917;-76
2022/08/16 10:48:02;;;;;;;;;;;;;;;36.98;22.15;98894.53;5033899;28;19919;-77
2022/08/16 10:50:28;;;;;;;;;;;;;;;36.95;23.44;98896.06;5047718;28;20309;-77
2022/08/16 10:52:53;;;;;;;;;;;;;;;37.05;23.92;98889.94;5032016;28;19912;-77
2022/08/16 10:55:19;;;;;;;;;;;;;;;37.21;22.67;98896.09;5036365;28;20011;-77
2022/08/16 10:57:45;;;;;;;;;;;;;;;37.32;24.19;98896.28;5017375;28;20409;-77
2022/08/16 11:00:13;;;;;;;;;;;;;;;37.31;22.09;98885.66;5047665;28;19999;-77
2022/08/16 11:02:38;;;;;;;;;;;;;;;37.35;22.82;98892.00;5011273;28;20444;-77
2022/08/16 11:05:05;;;;;;;;;;;;;;;37.52;21.31;98888.69;5017616;28;19921;-77
2022/08/16 11:07:30;;;;;;;;;;;;;;;37.77;23.04;98880.75;5034643;28;20017;-77
2022/08/16 11:09:57;;;;;;;;;;;;;;;37.71;22.27;98885.81;5036531;28;20423;-77
2022/08/16 11:12:23;;;;;;;;;;;;;;;37.35;21.01;98879.03;5047494;28;19916;-77
2022/08/16 11:14:48;;;;;;;;;;;;;;;37.16;22.79;98888.16;5052368;28;19913;-77
2022/08/16 11:17:13;;;;;;;;;;;;;;;37.42;21.49;98872.81;5053843;28;19975;-77
2022/08/16 11:19:40;;;;;;;;;;;;;;;37.76;21.75;98874.47;5053878;28;19960;-77
2022/08/16 11:22:06;;;;;;;;;;;;;;;37.90;21.01;98878.56;5042778;28;19912;-77
2022/08/16 11:24:32;;;;;;;;;;;;;;;38.01;21.37;98879.50;5043148;28;19990;-77
2022/08/16 11:26:57;;;;;;;;;;;;;;;38.17;21.74;98876.53;5032615;28;19935;-77
2022/08/16 11:29:22;;;;;;;;;;;;;;;38.18;21.88;98869.84;5042717;28;19917;-77
2022/08/16 11:31:48;;;;;;;;;;;;;;;38.29;21.47;98863.28;5052839;28;19905;-77
2022/08/16 11:34:14;;;;;;;;;;;;;;;38.43;21.81;98860.66;5039963;28;19913;-77
2022/08/16 11:36:39;;;;;;;;;;;;;;;38.57;21.21;98876.53;5033753;28;19992;-77
2022/08/16 11:39:04;;;;;;;;;;;;;;;38.58;20.56;98860.75;5033294;28;19913;-77
2022/08/16 11:41:32;;;;;;;;;;;;;;;38.73;22.50;98859.75;5033450;28;20358;-77
2022/08/16 11:43:58;;;;;;;;;;;;;;;38.77;21.47;98861.38;5045447;28;19999;-77
2022/08/16 11:46:23;;;;;;;;;;;;;;;38.84;21.19;98865.38;5039032;28;20003;-77
2022/08/16 11:48:50;;;;;;;;;;;;;;;38.97;19.67;98864.66;5044255;28;20289;-77
2022/08/16 11:51:15;;;;;;;;;;;;;;;39.11;21.15;98866.75;5034627;28;19913;-77
2022/08/16 11:53:41;;;;;;;;;;;;;;;38.74;20.25;98864.91;5034163;28;19986;-77
2022/08/16 11:56:06;;;;;;;;;;;;;;;38.35;21.23;98864.50;5049402;28;19913;-77
2022/08/16 11:58:32;;;;;;;;;;;;;;;37.91;21.57;98856.16;5051532;28;20374;-77
2022/08/16 12:00:58;;;;;;;;;;;;;;;37.74;20.33;98851.22;5053068;28;19920;-77
2022/08/16 12:03:26;;;;;;;;;;;;;;;37.69;22.18;98846.00;5049396;28;19996;-77
2022/08/16 12:05:52;;;;;;;;;;;;;;;37.41;22.18;98846.44;5040406;28;19917;-77
2022/08/16 12:08:17;;;;;;;;;;;;;;;36.85;21.97;98849.94;5014574;28;19910;-77
2022/08/16 12:10:45;;;;;;;;;;;;;;;36.81;20.84;98843.56;5025033;28;19924;-77
2022/08/16 12:13:11;;;;;;;;;;;;;;;37.16;21.35;98846.88;5024024;28;19917;-76
2022/08/16 12:15:36;;;;;;;;;;;;;;;37.07;20.71;98853.78;5028544;28;19916;-77
2022/08/16 12:18:02;;;;;;;;;;;;;;;36.86;21.52;98837.75;5032487;28;20304;-77
2022/08/16 12:20:31;;;;;;;;;;;;;;;36.79;21.87;98843.16;5046410;28;19916;-77
2022/08/16 12:22:57;;;;;;;;;;;;;;;37.05;22.10;98839.59;5044654;28;19913;-77
2022/08/16 12:25:23;;;;;;;;;;;;;;;37.10;21.88;98837.31;5033133;28;19982;-77
2022/08/16 12:27:49;;;;;;;;;;;;;;;36.75;22.26;98834.81;5031803;28;19917;-77
2022/08/16 12:30:16;;;;;;;;;;;;;;;36.37;23.07;98821.19;5030454;28;19921;-77
2022/08/16 12:32:41;;;;;;;;;;;;;;;36.27;23.66;98826.13;5030402;28;19975;-79
2022/08/16 12:35:08;;;;;;;;;;;;;;;36.67;22.57;98824.84;5032946;28;19916;-79
2022/08/16 12:37:34;;;;;;;;;;;;;;;36.56;22.79;98827.44;5043301;28;20404;-78
2022/08/16 12:39:59;;;;;;;;;;;;;;;36.78;22.73;98828.59;5050974;28;19948;-79
2022/08/16 12:42:25;;;;;;;;;;;;;;;36.89;22.61;98828.75;5042389;28;19919;-78